createdAt,value
2023-03-03T00:00:02.435Z,28.83
2023-03-03T00:04:15.089Z,25.38
2023-03-03T00:08:17.982Z,27.90
2023-03-03T00:12:24.901Z,26.27
2023-03-03T00:16:32.191Z,27.15
2023-03-03T00:20:37.733Z,26.00
2023-03-03T00:24:40.553Z,28.02
2023-03-03T00:28:47.192Z,27.08
2023-03-03T00:32:53.058Z,27.38
2023-03-03T00:36:57.263Z,27.48
2023-03-03T00:41:00.095Z,26.65
2023-03-03T00:45:03.173Z,27.60
2023-03-03T00:49:22.080Z,27.17
2023-03-03T00:53:26.535Z,26.70
2023-03-03T00:57:29.616Z,26.60
2023-03-03T01:01:32.816Z,27.60
2023-03-03T01:05:37.699Z,26.25
2023-03-03T01:09:40.607Z,26.33
2023-03-03T01:13:45.527Z,27.13
2023-03-03T01:17:48.355Z,27.70
2023-03-03T01:21:52.685Z,28.00
2023-03-03T01:25:55.594Z,28.58
2023-03-03T01:29:58.512Z,25.40
2023-03-03T01:34:01.643Z,26.73
2023-03-03T01:38:05.812Z,29.70
2023-03-03T01:42:09.171Z,25.63
2023-03-03T01:46:46.150Z,27.75
2023-03-03T01:50:52.963Z,24.70
2023-03-03T01:55:02.909Z,25.92
2023-03-03T01:59:11.099Z,25.67
2023-03-03T02:03:14.355Z,28.15
2023-03-03T02:07:18.284Z,27.42
2023-03-03T02:11:24.077Z,25.98
2023-03-03T02:15:29.293Z,25.98
2023-03-03T02:19:42.246Z,29.63
2023-03-03T02:23:54.043Z,28.15
2023-03-03T02:27:59.916Z,27.27
2023-03-03T02:32:03.850Z,27.35
2023-03-03T02:36:07.340Z,28.05
2023-03-03T02:40:12.064Z,28.48
2023-03-03T02:44:18.466Z,26.00
2023-03-03T02:48:22.524Z,26.73
2023-03-03T02:52:25.346Z,26.73
2023-03-03T02:56:28.461Z,28.27
2023-03-03T03:00:33.257Z,25.65
2023-03-03T03:04:37.067Z,28.13
2023-03-03T03:08:41.009Z,25.80
2023-03-03T03:12:43.942Z,27.52
2023-03-03T03:16:49.684Z,26.10
2023-03-03T03:20:52.713Z,28.67
2023-03-03T03:24:55.985Z,26.33
2023-03-03T03:28:58.887Z,26.20
2023-03-03T03:33:03.223Z,26.20
2023-03-03T03:37:06.602Z,26.33
2023-03-03T03:41:09.551Z,25.30
2023-03-03T03:45:15.188Z,25.15
2023-03-03T03:49:21.821Z,26.25
2023-03-03T03:53:26.908Z,27.52
2023-03-03T03:57:30.114Z,26.45
2023-03-03T04:01:33.069Z,25.77
2023-03-03T04:05:37.583Z,26.50
2023-03-03T04:09:41.437Z,26.07
2023-03-03T04:13:45.554Z,27.83
2023-03-03T04:17:48.808Z,26.02
2023-03-03T04:21:53.653Z,26.00
2023-03-03T04:25:56.590Z,25.45
2023-03-03T04:29:59.913Z,25.58
2023-03-03T04:34:03.082Z,28.10
2023-03-03T04:38:07.953Z,27.48
2023-03-03T04:42:13.248Z,26.63
2023-03-03T04:46:16.657Z,28.23
2023-03-03T04:50:20.845Z,27.98
2023-03-03T04:54:25.155Z,28.42
2023-03-03T04:58:28.044Z,29.15
2023-03-03T05:02:32.078Z,29.08
2023-03-03T05:06:35.662Z,34.08
2023-03-03T05:10:39.971Z,29.40
2023-03-03T05:14:42.882Z,30.02
2023-03-03T05:18:46.593Z,30.80
2023-03-03T05:22:49.412Z,31.35
2023-03-03T05:26:53.775Z,30.75
2023-03-03T05:30:56.589Z,33.75
2023-03-03T05:34:59.374Z,31.73
2023-03-03T05:39:02.174Z,33.33
2023-03-03T05:43:07.106Z,32.70
2023-03-03T05:47:09.927Z,30.95
2023-03-03T05:51:12.780Z,30.65
2023-03-03T05:55:15.601Z,31.40
2023-03-03T05:59:20.657Z,29.10
2023-03-03T06:03:23.551Z,30.60
2023-03-03T06:07:26.319Z,31.58
2023-03-03T06:11:29.205Z,29.95
2023-03-03T06:15:33.371Z,30.35
2023-03-03T06:19:37.093Z,31.63
2023-03-03T06:23:39.870Z,29.95
2023-03-03T06:27:42.652Z,29.60
2023-03-03T06:31:46.851Z,31.13
2023-03-03T06:35:51.410Z,30.63
2023-03-03T06:39:54.309Z,30.75
2023-03-03T06:43:58.337Z,30.30
2023-03-03T06:48:03.037Z,29.42
2023-03-03T06:52:13.074Z,30.75
2023-03-03T06:56:16.136Z,30.38
2023-03-03T07:00:21.260Z,30.52
2023-03-03T07:04:30.965Z,31.60
2023-03-03T07:08:33.974Z,31.05
2023-03-03T07:12:36.904Z,31.70
2023-03-03T07:16:39.724Z,31.58
2023-03-03T07:20:44.480Z,31.17
2023-03-03T07:24:52.493Z,32.03
2023-03-03T07:28:57.551Z,29.40
2023-03-03T07:33:00.611Z,30.40
2023-03-03T07:37:11.483Z,31.27
2023-03-03T07:41:20.831Z,31.88
2023-03-03T07:45:27.695Z,31.20
2023-03-03T07:49:35.901Z,30.85
2023-03-03T07:53:40.140Z,33.40
2023-03-03T07:57:43.083Z,30.58
2023-03-03T08:01:49.715Z,32.05
2023-03-03T08:05:53.164Z,30.85
2023-03-03T08:10:00.741Z,32.30
2023-03-03T08:14:10.417Z,32.55
2023-03-03T08:18:22.622Z,32.70
2023-03-03T08:22:32.385Z,32.50
2023-03-03T08:26:36.729Z,32.08
2023-03-03T08:30:39.760Z,32.97
2023-03-03T08:34:42.630Z,33.47
2023-03-03T08:38:45.473Z,29.63
2023-03-03T08:42:49.960Z,30.15
2023-03-03T08:46:52.783Z,32.42
2023-03-03T08:50:55.827Z,32.20
2023-03-03T08:54:58.654Z,31.10
2023-03-03T08:59:03.415Z,29.55
2023-03-03T09:03:07.125Z,31.48
2023-03-03T09:07:10.140Z,31.42
2023-03-03T09:11:13.777Z,30.95
2023-03-03T09:15:22.316Z,31.80
2023-03-03T09:19:29.427Z,32.80
2023-03-03T09:23:35.924Z,30.42
2023-03-03T09:31:46.080Z,30.40
2023-03-03T09:35:52.800Z,32.92
2023-03-03T09:39:57.413Z,32.00
2023-03-03T09:44:32.481Z,32.42
2023-03-03T09:48:50.124Z,32.20
2023-03-03T09:52:59.778Z,32.40
2023-03-03T09:57:09.856Z,31.10
2023-03-03T10:01:36.270Z,31.15
2023-03-03T10:05:48.977Z,33.67
2023-03-03T10:10:06.815Z,32.75
2023-03-03T10:14:22.025Z,32.63
2023-03-03T10:18:33.574Z,32.45
2023-03-03T10:22:48.994Z,32.58
2023-03-03T10:27:13.522Z,33.25
2023-03-03T10:31:28.414Z,31.92
2023-03-03T10:35:40.950Z,33.25
2023-03-03T10:40:02.762Z,31.65
2023-03-03T10:44:28.539Z,32.15
2023-03-03T10:48:52.104Z,32.58
2023-03-03T10:53:10.172Z,32.45
2023-03-03T10:57:22.888Z,33.47
2023-03-03T11:01:37.128Z,31.15
2023-03-03T11:05:43.963Z,32.05
2023-03-03T11:10:14.967Z,32.28
2023-03-03T11:14:24.955Z,33.20
2023-03-03T11:18:36.677Z,33.22
2023-03-03T11:22:47.610Z,31.85
2023-03-03T11:27:03.716Z,33.05
2023-03-03T11:31:19.701Z,34.42
2023-03-03T11:35:27.698Z,32.80
2023-03-03T11:39:30.608Z,33.45
2023-03-03T11:43:39.808Z,32.28
2023-03-03T11:47:52.221Z,33.33
2023-03-03T11:52:05.988Z,33.45
2023-03-03T11:56:21.900Z,32.45
2023-03-03T12:00:32.278Z,31.20
2023-03-03T12:04:41.911Z,31.63
2023-03-03T12:09:11.769Z,31.50
2023-03-03T12:13:22.046Z,32.97
2023-03-03T12:17:38.022Z,31.30
2023-03-03T12:21:58.091Z,32.73
2023-03-03T12:26:07.116Z,33.85
2023-03-03T12:30:21.366Z,32.95
2023-03-03T12:34:33.683Z,31.52
2023-03-03T12:38:45.191Z,31.05
2023-03-03T12:42:58.675Z,32.47
2023-03-03T12:47:07.498Z,32.55
2023-03-03T12:51:19.923Z,32.40
2023-03-03T12:55:33.928Z,31.15
2023-03-03T12:59:44.033Z,30.52
2023-03-03T13:03:56.701Z,31.48
2023-03-03T13:08:15.172Z,32.78
2023-03-03T13:12:39.311Z,30.80
2023-03-03T13:16:46.830Z,29.77
2023-03-03T13:20:54.928Z,30.95
2023-03-03T13:25:04.888Z,32.88
2023-03-03T13:29:20.206Z,32.20
2023-03-03T13:33:28.011Z,33.53
2023-03-03T13:37:34.169Z,33.00
2023-03-03T13:41:45.378Z,32.60
2023-03-03T13:46:06.523Z,33.20
2023-03-03T13:50:23.398Z,33.85
2023-03-03T13:54:51.921Z,30.67
2023-03-03T13:59:04.564Z,33.17
2023-03-03T14:03:27.102Z,30.00
2023-03-03T14:07:35.162Z,31.45
2023-03-03T14:11:46.808Z,32.13
2023-03-03T14:15:55.809Z,31.02
2023-03-03T14:20:12.756Z,31.05
2023-03-03T14:24:18.511Z,29.98
2023-03-03T14:28:23.176Z,28.63
2023-03-03T14:32:43.225Z,28.23
2023-03-03T14:36:49.262Z,27.02
2023-03-03T14:41:07.396Z,27.63
2023-03-03T14:45:33.588Z,28.85
2023-03-03T14:49:38.416Z,28.03
2023-03-03T14:53:45.424Z,29.17
2023-03-03T14:57:48.621Z,28.00
2023-03-03T15:01:59.318Z,27.98
2023-03-03T15:06:02.128Z,28.20
2023-03-03T15:10:07.784Z,29.25
2023-03-03T15:14:15.202Z,29.87
2023-03-03T15:18:18.489Z,27.45
2023-03-03T15:22:29.235Z,28.15
2023-03-03T15:26:44.235Z,27.25
2023-03-03T15:30:54.343Z,29.17
2023-03-03T15:35:05.851Z,28.80
2023-03-03T15:39:22.089Z,28.10
2023-03-03T15:43:29.442Z,29.73
2023-03-03T15:47:45.796Z,29.42
2023-03-03T15:52:03.830Z,30.70
2023-03-03T15:56:21.708Z,30.02
2023-03-03T16:00:38.751Z,30.85
2023-03-03T16:04:48.876Z,30.25
2023-03-03T16:08:59.295Z,29.73
2023-03-03T16:13:20.599Z,30.63
2023-03-03T16:17:32.521Z,29.38
2023-03-03T16:21:53.501Z,30.90
2023-03-03T16:26:06.516Z,31.10
2023-03-03T16:30:27.433Z,28.90
2023-03-03T16:34:38.583Z,29.42
2023-03-03T16:38:44.889Z,31.63
2023-03-03T16:42:52.533Z,34.55
2023-03-03T16:47:07.366Z,35.40
2023-03-03T16:51:29.293Z,33.63
2023-03-03T16:55:36.637Z,30.65
2023-03-03T17:00:05.377Z,31.55
2023-03-03T17:04:16.004Z,30.58
2023-03-03T17:08:41.815Z,32.83
2023-03-03T17:13:10.624Z,32.65
2023-03-03T17:17:26.968Z,31.52
2023-03-03T17:21:40.348Z,32.25
2023-03-03T17:25:51.105Z,38.97
2023-03-03T17:30:04.181Z,34.45
2023-03-03T17:34:19.011Z,38.50
2023-03-03T17:38:32.737Z,36.58
2023-03-03T17:42:44.388Z,33.88
2023-03-03T17:46:51.434Z,43.70
2023-03-03T17:51:09.484Z,40.70
2023-03-03T17:55:36.730Z,47.85
2023-03-03T17:59:53.128Z,41.47
2023-03-03T18:04:35.366Z,38.75
2023-03-03T18:09:19.690Z,40.97
2023-03-03T18:13:41.964Z,41.10
2023-03-03T18:18:05.915Z,40.20
2023-03-03T18:22:14.006Z,41.60
2023-03-03T18:26:40.363Z,41.72
2023-03-03T18:30:59.330Z,42.30
2023-03-03T18:35:25.702Z,37.80
2023-03-03T18:39:46.572Z,38.03
2023-03-03T18:43:56.275Z,37.80
2023-03-03T18:48:06.049Z,36.30
2023-03-03T18:52:19.348Z,32.92
2023-03-03T18:56:44.908Z,34.08
2023-03-03T19:00:50.308Z,34.50
2023-03-03T19:04:56.018Z,36.73
2023-03-03T19:09:00.308Z,36.85
2023-03-03T19:13:03.180Z,35.92
2023-03-03T19:17:39.340Z,35.88
2023-03-03T19:21:43.944Z,36.17
2023-03-03T19:26:21.424Z,36.40
2023-03-03T19:30:48.755Z,39.35
2023-03-03T19:34:58.826Z,38.78
2023-03-03T19:39:23.522Z,39.20
2023-03-03T19:43:38.258Z,41.17
2023-03-03T19:47:47.311Z,40.17
2023-03-03T19:52:00.276Z,40.05
2023-03-03T19:56:16.889Z,39.65
2023-03-03T20:04:40.606Z,39.80
2023-03-03T20:08:54.371Z,38.83
2023-03-03T20:13:08.473Z,36.63
2023-03-03T20:17:58.542Z,36.65
2023-03-03T20:22:09.586Z,35.95
2023-03-03T20:26:17.786Z,36.92
2023-03-03T20:30:46.585Z,37.05
2023-03-03T20:35:03.206Z,38.40
2023-03-03T20:43:22.748Z,37.15
2023-03-03T20:47:38.156Z,37.20
2023-03-03T20:51:46.515Z,38.88
2023-03-03T20:55:59.622Z,37.78
2023-03-03T21:00:07.658Z,40.53
2023-03-03T21:04:18.779Z,38.80
2023-03-03T21:08:41.230Z,42.33
2023-03-03T21:12:44.236Z,40.83
2023-03-03T21:16:47.116Z,40.35
2023-03-03T21:20:49.922Z,39.58
2023-03-03T21:24:55.908Z,41.13
2023-03-03T21:29:03.689Z,40.53
2023-03-03T21:33:06.491Z,43.22
2023-03-03T21:37:10.722Z,41.15
2023-03-03T21:41:16.679Z,39.50
2023-03-03T21:45:20.403Z,40.63
2023-03-03T21:49:23.245Z,42.33
2023-03-03T21:53:26.623Z,40.65
2023-03-03T21:57:30.848Z,42.47
2023-03-03T22:01:33.746Z,40.10
2023-03-03T22:05:37.182Z,39.05
2023-03-03T22:09:40.161Z,39.83
2023-03-03T22:13:44.306Z,39.40
2023-03-03T22:17:47.166Z,41.33
2023-03-03T22:21:50.562Z,42.05
2023-03-03T22:25:53.335Z,41.45
2023-03-03T22:29:57.509Z,43.97
2023-03-03T22:34:00.479Z,43.17
2023-03-03T22:38:03.438Z,41.08
2023-03-03T22:42:06.531Z,43.13
2023-03-03T22:46:10.888Z,43.22
2023-03-03T22:50:16.815Z,42.20
2023-03-03T22:54:19.551Z,43.00
2023-03-03T22:58:25.407Z,43.53
2023-03-03T23:02:29.793Z,41.85
2023-03-03T23:06:32.562Z,41.65
2023-03-03T23:10:35.674Z,42.05
2023-03-03T23:14:38.419Z,45.00
2023-03-03T23:18:42.665Z,44.88
2023-03-03T23:22:47.121Z,44.47
2023-03-03T23:26:51.762Z,44.70
2023-03-03T23:30:54.578Z,41.42
2023-03-03T23:34:58.703Z,44.70
2023-03-03T23:39:01.463Z,41.72
2023-03-03T23:43:04.205Z,42.97
2023-03-03T23:47:07.555Z,42.42
2023-03-03T23:51:11.627Z,38.28
2023-03-03T23:55:14.347Z,43.30
2023-03-03T23:59:17.207Z,41.58
